sensor_id;sensor_type;location;lat;lon;timestamp;temperature;humidity
26952;DHT22;14507;52.418;13.398;2023-07-30T00:01:16;17.70;99.90
26952;DHT22;14507;52.418;13.398;2023-07-30T00:03:41;17.70;99.90
26952;DHT22;14507;52.418;13.398;2023-07-30T00:06:07;17.70;99.90
26952;DHT22;14507;52.418;13.398;2023-07-30T00:08:33;17.70;99.90
26952;DHT22;14507;52.418;13.398;2023-07-30T00:10:58;17.70;99.90
26952;DHT22;14507;52.418;13.398;2023-07-30T00:13:25;17.70;99.90
26952;DHT22;14507;52.418;13.398;2023-07-30T00:15:50;17.70;99.90
26952;DHT22;14507;52.418;13.398;2023-07-30T00:18:16;17.60;99.90
26952;DHT22;14507;52.418;13.398;2023-07-30T00:20:42;17.60;99.90
26952;DHT22;14507;52.418;13.398;2023-07-30T00:23:08;17.60;99.90
26952;DHT22;14507;52.418;13.398;2023-07-30T00:25:34;17.60;99.90
26952;DHT22;14507;52.418;13.398;2023-07-30T00:28:00;17.50;99.90
26952;DHT22;14507;52.418;13.398;2023-07-30T00:30:25;17.50;99.90
26952;DHT22;14507;52.418;13.398;2023-07-30T00:32:51;17.50;99.90
26952;DHT22;14507;52.418;13.398;2023-07-30T00:35:16;17.40;99.90
26952;DHT22;14507;52.418;13.398;2023-07-30T00:37:42;17.40;99.90
26952;DHT22;14507;52.418;13.398;2023-07-30T00:40:08;17.40;99.90
26952;DHT22;14507;52.418;13.398;2023-07-30T00:42:34;17.40;99.90
26952;DHT22;14507;52.418;13.398;2023-07-30T00:44:59;17.30;99.90
26952;DHT22;14507;52.418;13.398;2023-07-30T00:47:26;17.30;99.90
26952;DHT22;14507;52.418;13.398;2023-07-30T00:49:52;17.30;99.90
26952;DHT22;14507;52.418;13.398;2023-07-30T00:52:20;17.30;99.90
26952;DHT22;14507;52.418;13.398;2023-07-30T00:54:47;17.30;99.90
26952;DHT22;14507;52.418;13.398;2023-07-30T00:57:13;17.30;99.90
26952;DHT22;14507;52.418;13.398;2023-07-30T00:59:39;17.20;99.90
26952;DHT22;14507;52.418;13.398;2023-07-30T01:02:05;17.20;99.90
26952;DHT22;14507;52.418;13.398;2023-07-30T01:04:32;17.10;99.90
26952;DHT22;14507;52.418;13.398;2023-07-30T01:06:58;17.10;99.90
26952;DHT22;14507;52.418;13.398;2023-07-30T01:09:24;17.10;99.90
26952;DHT22;14507;52.418;13.398;2023-07-30T01:11:51;17.00;99.90
26952;DHT22;14507;52.418;13.398;2023-07-30T01:14:20;17.00;99.90
26952;DHT22;14507;52.418;13.398;2023-07-30T01:16:46;17.00;99.90
26952;DHT22;14507;52.418;13.398;2023-07-30T01:19:12;17.00;99.90
26952;DHT22;14507;52.418;13.398;2023-07-30T01:21:38;16.90;99.90
26952;DHT22;14507;52.418;13.398;2023-07-30T01:24:04;16.90;99.90
26952;DHT22;14507;52.418;13.398;2023-07-30T01:26:45;16.90;99.90
26952;DHT22;14507;52.418;13.398;2023-07-30T01:29:16;16.90;99.90
26952;DHT22;14507;52.418;13.398;2023-07-30T01:31:48;16.80;99.90
26952;DHT22;14507;52.418;13.398;2023-07-30T01:34:18;16.80;99.90
26952;DHT22;14507;52.418;13.398;2023-07-30T01:36:45;16.80;99.90
26952;DHT22;14507;52.418;13.398;2023-07-30T01:39:12;16.80;99.90
26952;DHT22;14507;52.418;13.398;2023-07-30T01:41:38;16.80;99.90
26952;DHT22;14507;52.418;13.398;2023-07-30T01:44:04;16.70;99.90
26952;DHT22;14507;52.418;13.398;2023-07-30T01:46:29;16.70;99.90
26952;DHT22;14507;52.418;13.398;2023-07-30T01:48:55;16.70;99.90
26952;DHT22;14507;52.418;13.398;2023-07-30T01:51:20;16.60;99.90
26952;DHT22;14507;52.418;13.398;2023-07-30T01:53:46;16.60;99.90
26952;DHT22;14507;52.418;13.398;2023-07-30T01:56:11;16.70;99.90
26952;DHT22;14507;52.418;13.398;2023-07-30T01:58:37;16.60;99.90
26952;DHT22;14507;52.418;13.398;2023-07-30T02:01:03;16.60;99.90
26952;DHT22;14507;52.418;13.398;2023-07-30T02:03:28;16.60;99.90
26952;DHT22;14507;52.418;13.398;2023-07-30T02:05:54;16.60;99.90
26952;DHT22;14507;52.418;13.398;2023-07-30T02:08:19;16.50;99.90
26952;DHT22;14507;52.418;13.398;2023-07-30T02:10:54;16.50;99.90
26952;DHT22;14507;52.418;13.398;2023-07-30T02:13:20;16.50;99.90
26952;DHT22;14507;52.418;13.398;2023-07-30T02:15:46;16.50;99.90
26952;DHT22;14507;52.418;13.398;2023-07-30T02:18:11;16.40;99.90
26952;DHT22;14507;52.418;13.398;2023-07-30T02:20:37;16.40;99.90
26952;DHT22;14507;52.418;13.398;2023-07-30T02:23:03;16.40;99.90
26952;DHT22;14507;52.418;13.398;2023-07-30T02:25:28;16.30;99.90
26952;DHT22;14507;52.418;13.398;2023-07-30T02:27:54;16.30;99.90
26952;DHT22;14507;52.418;13.398;2023-07-30T02:30:19;16.30;99.90
26952;DHT22;14507;52.418;13.398;2023-07-30T02:32:45;16.30;99.90
26952;DHT22;14507;52.418;13.398;2023-07-30T02:35:11;16.30;99.90
26952;DHT22;14507;52.418;13.398;2023-07-30T02:37:36;16.30;99.90
26952;DHT22;14507;52.418;13.398;2023-07-30T02:40:02;16.20;99.90
26952;DHT22;14507;52.418;13.398;2023-07-30T02:42:30;16.20;99.90
26952;DHT22;14507;52.418;13.398;2023-07-30T02:44:56;16.20;99.90
26952;DHT22;14507;52.418;13.398;2023-07-30T02:47:22;16.20;99.90
26952;DHT22;14507;52.418;13.398;2023-07-30T02:49:47;16.20;99.90
26952;DHT22;14507;52.418;13.398;2023-07-30T02:52:13;16.20;99.90
26952;DHT22;14507;52.418;13.398;2023-07-30T02:54:38;16.20;99.90
26952;DHT22;14507;52.418;13.398;2023-07-30T02:57:04;16.20;99.90
26952;DHT22;14507;52.418;13.398;2023-07-30T02:59:30;16.20;99.90
26952;DHT22;14507;52.418;13.398;2023-07-30T03:01:56;16.20;99.90
26952;DHT22;14507;52.418;13.398;2023-07-30T03:04:21;16.10;99.90
26952;DHT22;14507;52.418;13.398;2023-07-30T03:06:47;16.10;99.90
26952;DHT22;14507;52.418;13.398;2023-07-30T03:09:12;16.20;99.90
26952;DHT22;14507;52.418;13.398;2023-07-30T03:11:38;16.10;99.90
26952;DHT22;14507;52.418;13.398;2023-07-30T03:14:03;16.10;99.90
26952;DHT22;14507;52.418;13.398;2023-07-30T03:16:29;16.10;99.90
26952;DHT22;14507;52.418;13.398;2023-07-30T03:18:55;16.10;99.90
26952;DHT22;14507;52.418;13.398;2023-07-30T03:21:20;16.10;99.90
26952;DHT22;14507;52.418;13.398;2023-07-30T03:23:46;16.10;99.90
26952;DHT22;14507;52.418;13.398;2023-07-30T03:26:13;16.10;99.90
26952;DHT22;14507;52.418;13.398;2023-07-30T03:28:39;16.10;99.90
26952;DHT22;14507;52.418;13.398;2023-07-30T03:31:05;16.10;99.90
26952;DHT22;14507;52.418;13.398;2023-07-30T03:33:31;16.10;99.90
26952;DHT22;14507;52.418;13.398;2023-07-30T03:35:57;16.10;99.90
26952;DHT22;14507;52.418;13.398;2023-07-30T03:38:22;16.10;99.90
26952;DHT22;14507;52.418;13.398;2023-07-30T03:40:48;16.10;99.90
26952;DHT22;14507;52.418;13.398;2023-07-30T03:43:13;16.10;99.90
26952;DHT22;14507;52.418;13.398;2023-07-30T03:45:39;16.10;99.90
26952;DHT22;14507;52.418;13.398;2023-07-30T03:48:05;16.10;99.90
26952;DHT22;14507;52.418;13.398;2023-07-30T03:50:31;16.10;99.90
26952;DHT22;14507;52.418;13.398;2023-07-30T03:52:56;16.10;99.90
26952;DHT22;14507;52.418;13.398;2023-07-30T03:55:23;16.20;99.90
26952;DHT22;14507;52.418;13.398;2023-07-30T03:57:49;16.20;99.90
26952;DHT22;14507;52.418;13.398;2023-07-30T04:00:15;16.20;99.90
26952;DHT22;14507;52.418;13.398;2023-07-30T04:02:41;16.20;99.90
26952;DHT22;14507;52.418;13.398;2023-07-30T04:05:06;16.30;99.90
26952;DHT22;14507;52.418;13.398;2023-07-30T04:07:32;16.30;99.90
26952;DHT22;14507;52.418;13.398;2023-07-30T04:09:58;16.30;99.90
26952;DHT22;14507;52.418;13.398;2023-07-30T04:12:23;16.40;99.90
26952;DHT22;14507;52.418;13.398;2023-07-30T04:14:49;16.40;99.90
26952;DHT22;14507;52.418;13.398;2023-07-30T04:17:14;16.40;99.90
26952;DHT22;14507;52.418;13.398;2023-07-30T04:19:40;16.40;99.90
26952;DHT22;14507;52.418;13.398;2023-07-30T04:22:05;16.40;99.90
26952;DHT22;14507;52.418;13.398;2023-07-30T04:24:31;16.50;99.90
26952;DHT22;14507;52.418;13.398;2023-07-30T04:26:57;16.50;99.90
26952;DHT22;14507;52.418;13.398;2023-07-30T04:29:22;16.50;99.90
26952;DHT22;14507;52.418;13.398;2023-07-30T04:31:48;16.50;99.90
26952;DHT22;14507;52.418;13.398;2023-07-30T04:34:13;16.60;99.90
26952;DHT22;14507;52.418;13.398;2023-07-30T04:36:40;16.60;99.90
26952;DHT22;14507;52.418;13.398;2023-07-30T04:39:06;16.60;99.90
26952;DHT22;14507;52.418;13.398;2023-07-30T04:41:31;16.70;99.90
26952;DHT22;14507;52.418;13.398;2023-07-30T04:43:57;16.80;99.90
26952;DHT22;14507;52.418;13.398;2023-07-30T04:46:22;16.90;99.90
26952;DHT22;14507;52.418;13.398;2023-07-30T04:48:48;17.10;99.90
26952;DHT22;14507;52.418;13.398;2023-07-30T04:51:13;17.30;99.90
26952;DHT22;14507;52.418;13.398;2023-07-30T04:53:39;17.50;99.90
26952;DHT22;14507;52.418;13.398;2023-07-30T04:56:05;17.80;99.90
26952;DHT22;14507;52.418;13.398;2023-07-30T04:58:30;18.10;99.90
26952;DHT22;14507;52.418;13.398;2023-07-30T05:00:56;18.40;99.90
26952;DHT22;14507;52.418;13.398;2023-07-30T05:03:22;18.70;99.90
26952;DHT22;14507;52.418;13.398;2023-07-30T05:05:47;19.00;99.90
26952;DHT22;14507;52.418;13.398;2023-07-30T05:08:13;19.20;99.90
26952;DHT22;14507;52.418;13.398;2023-07-30T05:10:38;19.40;99.90
26952;DHT22;14507;52.418;13.398;2023-07-30T05:13:04;19.60;99.90
26952;DHT22;14507;52.418;13.398;2023-07-30T05:15:29;19.80;99.90
26952;DHT22;14507;52.418;13.398;2023-07-30T05:17:55;20.00;99.90
26952;DHT22;14507;52.418;13.398;2023-07-30T05:20:21;20.30;99.90
26952;DHT22;14507;52.418;13.398;2023-07-30T05:22:46;20.50;99.90
26952;DHT22;14507;52.418;13.398;2023-07-30T05:25:12;20.60;99.90
26952;DHT22;14507;52.418;13.398;2023-07-30T05:27:37;20.60;99.90
26952;DHT22;14507;52.418;13.398;2023-07-30T05:30:03;20.80;99.90
26952;DHT22;14507;52.418;13.398;2023-07-30T05:32:29;21.00;99.90
26952;DHT22;14507;52.418;13.398;2023-07-30T05:34:55;21.20;99.90
26952;DHT22;14507;52.418;13.398;2023-07-30T05:37:20;21.40;99.90
26952;DHT22;14507;52.418;13.398;2023-07-30T05:39:46;21.60;99.90
26952;DHT22;14507;52.418;13.398;2023-07-30T05:42:12;21.80;99.90
26952;DHT22;14507;52.418;13.398;2023-07-30T05:44:37;21.90;99.90
26952;DHT22;14507;52.418;13.398;2023-07-30T05:47:03;22.10;99.90
26952;DHT22;14507;52.418;13.398;2023-07-30T05:49:29;22.20;99.90
26952;DHT22;14507;52.418;13.398;2023-07-30T05:51:54;22.30;99.90
26952;DHT22;14507;52.418;13.398;2023-07-30T05:54:20;22.50;99.90
26952;DHT22;14507;52.418;13.398;2023-07-30T05:56:45;22.70;99.90
26952;DHT22;14507;52.418;13.398;2023-07-30T05:59:11;22.90;99.90
26952;DHT22;14507;52.418;13.398;2023-07-30T06:01:36;23.10;99.90
26952;DHT22;14507;52.418;13.398;2023-07-30T06:04:02;23.30;99.90
26952;DHT22;14507;52.418;13.398;2023-07-30T06:06:28;23.60;99.90
26952;DHT22;14507;52.418;13.398;2023-07-30T06:08:55;23.70;99.90
26952;DHT22;14507;52.418;13.398;2023-07-30T06:11:21;23.90;99.90
26952;DHT22;14507;52.418;13.398;2023-07-30T06:13:46;24.10;99.90
26952;DHT22;14507;52.418;13.398;2023-07-30T06:16:13;24.20;99.90
26952;DHT22;14507;52.418;13.398;2023-07-30T06:18:38;24.00;99.90
26952;DHT22;14507;52.418;13.398;2023-07-30T06:21:04;23.60;99.90
26952;DHT22;14507;52.418;13.398;2023-07-30T06:23:29;23.20;99.90
26952;DHT22;14507;52.418;13.398;2023-07-30T06:25:55;22.80;99.90
26952;DHT22;14507;52.418;13.398;2023-07-30T06:28:21;22.40;99.90
26952;DHT22;14507;52.418;13.398;2023-07-30T06:30:46;22.10;99.90
26952;DHT22;14507;52.418;13.398;2023-07-30T06:33:12;21.90;99.90
26952;DHT22;14507;52.418;13.398;2023-07-30T06:35:38;21.70;99.90
26952;DHT22;14507;52.418;13.398;2023-07-30T06:38:05;21.60;99.90
26952;DHT22;14507;52.418;13.398;2023-07-30T06:40:32;21.50;99.90
26952;DHT22;14507;52.418;13.398;2023-07-30T06:42:58;21.40;99.90
26952;DHT22;14507;52.418;13.398;2023-07-30T06:45:23;21.30;99.90
26952;DHT22;14507;52.418;13.398;2023-07-30T06:47:49;21.20;99.90
26952;DHT22;14507;52.418;13.398;2023-07-30T06:50:14;21.20;99.90
26952;DHT22;14507;52.418;13.398;2023-07-30T06:52:40;21.20;99.90
26952;DHT22;14507;52.418;13.398;2023-07-30T06:55:06;21.10;99.90
26952;DHT22;14507;52.418;13.398;2023-07-30T06:57:32;21.20;99.90
26952;DHT22;14507;52.418;13.398;2023-07-30T06:59:57;21.20;99.90
26952;DHT22;14507;52.418;13.398;2023-07-30T07:02:26;21.30;99.90
26952;DHT22;14507;52.418;13.398;2023-07-30T07:04:53;21.60;99.90
26952;DHT22;14507;52.418;13.398;2023-07-30T07:07:19;22.30;99.90
26952;DHT22;14507;52.418;13.398;2023-07-30T07:09:45;22.90;99.90
26952;DHT22;14507;52.418;13.398;2023-07-30T07:12:11;23.20;99.90
26952;DHT22;14507;52.418;13.398;2023-07-30T07:14:37;23.80;99.90
26952;DHT22;14507;52.418;13.398;2023-07-30T07:17:02;24.60;99.90
26952;DHT22;14507;52.418;13.398;2023-07-30T07:19:28;25.20;99.90
26952;DHT22;14507;52.418;13.398;2023-07-30T07:21:54;25.60;99.90
26952;DHT22;14507;52.418;13.398;2023-07-30T07:24:19;26.00;99.90
26952;DHT22;14507;52.418;13.398;2023-07-30T07:26:45;26.10;99.90
26952;DHT22;14507;52.418;13.398;2023-07-30T07:29:10;26.20;99.90
26952;DHT22;14507;52.418;13.398;2023-07-30T07:31:36;26.60;99.90
26952;DHT22;14507;52.418;13.398;2023-07-30T07:34:02;27.10;99.30
26952;DHT22;14507;52.418;13.398;2023-07-30T07:36:27;27.60;98.80
26952;DHT22;14507;52.418;13.398;2023-07-30T07:38:53;28.10;97.10
26952;DHT22;14507;52.418;13.398;2023-07-30T07:41:18;28.40;96.90
26952;DHT22;14507;52.418;13.398;2023-07-30T07:43:46;28.60;97.00
26952;DHT22;14507;52.418;13.398;2023-07-30T07:46:12;29.20;95.40
26952;DHT22;14507;52.418;13.398;2023-07-30T07:48:42;29.20;95.40
26952;DHT22;14507;52.418;13.398;2023-07-30T07:51:09;29.60;95.00
26952;DHT22;14507;52.418;13.398;2023-07-30T07:53:35;30.00;95.10
26952;DHT22;14507;52.418;13.398;2023-07-30T07:56:01;30.40;94.00
26952;DHT22;14507;52.418;13.398;2023-07-30T07:58:27;30.50;92.50
26952;DHT22;14507;52.418;13.398;2023-07-30T08:00:57;30.60;92.80
26952;DHT22;14507;52.418;13.398;2023-07-30T08:03:24;30.90;92.90
26952;DHT22;14507;52.418;13.398;2023-07-30T08:05:52;31.30;92.40
26952;DHT22;14507;52.418;13.398;2023-07-30T08:08:17;31.50;92.00
26952;DHT22;14507;52.418;13.398;2023-07-30T08:10:43;31.50;91.60
26952;DHT22;14507;52.418;13.398;2023-07-30T08:13:11;31.50;91.10
26952;DHT22;14507;52.418;13.398;2023-07-30T08:15:37;31.70;91.00
26952;DHT22;14507;52.418;13.398;2023-07-30T08:18:03;31.60;90.10
26952;DHT22;14507;52.418;13.398;2023-07-30T08:20:28;31.50;91.00
26952;DHT22;14507;52.418;13.398;2023-07-30T08:22:54;31.40;90.10
26952;DHT22;14507;52.418;13.398;2023-07-30T08:25:20;31.50;89.20
26952;DHT22;14507;52.418;13.398;2023-07-30T08:27:45;31.40;90.70
26952;DHT22;14507;52.418;13.398;2023-07-30T08:30:12;31.30;90.10
26952;DHT22;14507;52.418;13.398;2023-07-30T08:32:37;31.30;90.20
26952;DHT22;14507;52.418;13.398;2023-07-30T08:35:04;31.10;89.30
26952;DHT22;14507;52.418;13.398;2023-07-30T08:37:30;31.00;89.70
26952;DHT22;14507;52.418;13.398;2023-07-30T08:39:55;31.10;88.10
26952;DHT22;14507;52.418;13.398;2023-07-30T08:42:21;30.80;89.00
26952;DHT22;14507;52.418;13.398;2023-07-30T08:44:47;30.70;88.40
26952;DHT22;14507;52.418;13.398;2023-07-30T08:47:13;30.60;86.60
26952;DHT22;14507;52.418;13.398;2023-07-30T08:49:38;30.50;88.40
26952;DHT22;14507;52.418;13.398;2023-07-30T08:52:09;30.60;89.90
26952;DHT22;14507;52.418;13.398;2023-07-30T08:54:37;30.80;87.00
26952;DHT22;14507;52.418;13.398;2023-07-30T08:57:03;30.40;87.70
26952;DHT22;14507;52.418;13.398;2023-07-30T08:59:37;30.00;86.60
26952;DHT22;14507;52.418;13.398;2023-07-30T09:02:03;29.50;88.10
26952;DHT22;14507;52.418;13.398;2023-07-30T09:04:33;28.90;90.00
26952;DHT22;14507;52.418;13.398;2023-07-30T09:07:00;28.50;90.10
26952;DHT22;14507;52.418;13.398;2023-07-30T09:09:26;28.40;90.00
26952;DHT22;14507;52.418;13.398;2023-07-30T09:11:52;29.20;90.60
26952;DHT22;14507;52.418;13.398;2023-07-30T09:14:20;29.10;90.00
26952;DHT22;14507;52.418;13.398;2023-07-30T09:16:46;29.40;88.10
26952;DHT22;14507;52.418;13.398;2023-07-30T09:19:16;29.90;88.80
26952;DHT22;14507;52.418;13.398;2023-07-30T09:21:43;29.90;88.90
26952;DHT22;14507;52.418;13.398;2023-07-30T09:24:09;30.20;86.40
26952;DHT22;14507;52.418;13.398;2023-07-30T09:26:45;30.30;87.00
26952;DHT22;14507;52.418;13.398;2023-07-30T09:29:12;30.20;83.70
26952;DHT22;14507;52.418;13.398;2023-07-30T09:31:53;30.10;83.70
26952;DHT22;14507;52.418;13.398;2023-07-30T09:34:20;30.10;85.10
26952;DHT22;14507;52.418;13.398;2023-07-30T09:36:47;29.80;83.00
26952;DHT22;14507;52.418;13.398;2023-07-30T09:39:20;29.50;85.00
26952;DHT22;14507;52.418;13.398;2023-07-30T09:41:46;29.40;84.70
26952;DHT22;14507;52.418;13.398;2023-07-30T09:44:13;29.20;85.60
26952;DHT22;14507;52.418;13.398;2023-07-30T09:46:43;28.80;84.70
26952;DHT22;14507;52.418;13.398;2023-07-30T09:49:10;28.50;85.70
26952;DHT22;14507;52.418;13.398;2023-07-30T09:51:37;28.30;83.80
26952;DHT22;14507;52.418;13.398;2023-07-30T09:54:04;28.10;84.80
26952;DHT22;14507;52.418;13.398;2023-07-30T09:56:31;27.90;85.10
26952;DHT22;14507;52.418;13.398;2023-07-30T09:58:56;27.90;86.70
26952;DHT22;14507;52.418;13.398;2023-07-30T10:01:24;28.00;87.40
26952;DHT22;14507;52.418;13.398;2023-07-30T10:03:51;28.10;86.40
26952;DHT22;14507;52.418;13.398;2023-07-30T10:06:18;28.30;86.80
26952;DHT22;14507;52.418;13.398;2023-07-30T10:08:44;28.30;87.50
26952;DHT22;14507;52.418;13.398;2023-07-30T10:11:13;28.40;85.90
26952;DHT22;14507;52.418;13.398;2023-07-30T10:13:40;28.60;85.20
26952;DHT22;14507;52.418;13.398;2023-07-30T10:16:10;28.80;84.30
26952;DHT22;14507;52.418;13.398;2023-07-30T10:18:41;28.80;86.00
26952;DHT22;14507;52.418;13.398;2023-07-30T10:21:14;28.80;86.10
26952;DHT22;14507;52.418;13.398;2023-07-30T10:23:57;28.90;83.60
26952;DHT22;14507;52.418;13.398;2023-07-30T10:26:28;28.90;84.10
26952;DHT22;14507;52.418;13.398;2023-07-30T10:29:14;28.80;81.90
26952;DHT22;14507;52.418;13.398;2023-07-30T10:31:41;28.70;80.90
26952;DHT22;14507;52.418;13.398;2023-07-30T10:34:08;28.50;82.20
26952;DHT22;14507;52.418;13.398;2023-07-30T10:36:42;28.40;82.90
26952;DHT22;14507;52.418;13.398;2023-07-30T10:39:19;28.40;81.30
26952;DHT22;14507;52.418;13.398;2023-07-30T10:41:55;28.40;82.50
26952;DHT22;14507;52.418;13.398;2023-07-30T10:44:31;28.50;81.80
26952;DHT22;14507;52.418;13.398;2023-07-30T10:46:58;28.50;83.60
26952;DHT22;14507;52.418;13.398;2023-07-30T10:49:24;28.40;81.50
26952;DHT22;14507;52.418;13.398;2023-07-30T10:51:57;28.40;81.80
26952;DHT22;14507;52.418;13.398;2023-07-30T10:54:23;28.30;81.90
26952;DHT22;14507;52.418;13.398;2023-07-30T10:56:49;28.30;83.80
26952;DHT22;14507;52.418;13.398;2023-07-30T10:59:15;28.10;84.50
26952;DHT22;14507;52.418;13.398;2023-07-30T11:01:45;27.90;82.60
26952;DHT22;14507;52.418;13.398;2023-07-30T11:04:13;27.70;84.70
26952;DHT22;14507;52.418;13.398;2023-07-30T11:06:38;27.50;86.70
26952;DHT22;14507;52.418;13.398;2023-07-30T11:09:05;27.50;84.80
26952;DHT22;14507;52.418;13.398;2023-07-30T11:11:31;27.60;83.80
26952;DHT22;14507;52.418;13.398;2023-07-30T11:13:57;27.70;83.00
26952;DHT22;14507;52.418;13.398;2023-07-30T11:16:24;27.80;80.50
26952;DHT22;14507;52.418;13.398;2023-07-30T11:18:50;27.80;81.50
26952;DHT22;14507;52.418;13.398;2023-07-30T11:21:19;28.00;82.80
26952;DHT22;14507;52.418;13.398;2023-07-30T11:23:45;28.00;82.30
26952;DHT22;14507;52.418;13.398;2023-07-30T11:26:17;28.10;81.20
26952;DHT22;14507;52.418;13.398;2023-07-30T11:28:43;28.00;81.30
26952;DHT22;14507;52.418;13.398;2023-07-30T11:31:17;28.00;79.90
26952;DHT22;14507;52.418;13.398;2023-07-30T11:33:48;27.90;82.00
26952;DHT22;14507;52.418;13.398;2023-07-30T11:36:16;27.90;81.40
26952;DHT22;14507;52.418;13.398;2023-07-30T11:38:45;27.90;82.70
26952;DHT22;14507;52.418;13.398;2023-07-30T11:41:11;27.90;81.90
26952;DHT22;14507;52.418;13.398;2023-07-30T11:43:39;27.80;80.50
26952;DHT22;14507;52.418;13.398;2023-07-30T11:46:13;27.70;81.10
26952;DHT22;14507;52.418;13.398;2023-07-30T11:48:40;27.60;82.20
26952;DHT22;14507;52.418;13.398;2023-07-30T11:51:07;27.60;81.60
26952;DHT22;14507;52.418;13.398;2023-07-30T11:53:46;27.50;81.80
26952;DHT22;14507;52.418;13.398;2023-07-30T11:56:34;27.60;82.40
26952;DHT22;14507;52.418;13.398;2023-07-30T11:59:05;27.60;82.80
26952;DHT22;14507;52.418;13.398;2023-07-30T12:01:34;27.60;80.40
26952;DHT22;14507;52.418;13.398;2023-07-30T12:04:02;27.60;81.80
26952;DHT22;14507;52.418;13.398;2023-07-30T12:06:41;27.50;79.70
26952;DHT22;14507;52.418;13.398;2023-07-30T12:09:19;27.40;79.90
26952;DHT22;14507;52.418;13.398;2023-07-30T12:11:50;27.40;82.90
26952;DHT22;14507;52.418;13.398;2023-07-30T12:14:16;27.40;82.50
26952;DHT22;14507;52.418;13.398;2023-07-30T12:16:42;27.40;79.40
26952;DHT22;14507;52.418;13.398;2023-07-30T12:19:08;27.40;82.40
26952;DHT22;14507;52.418;13.398;2023-07-30T12:21:33;27.40;81.60
26952;DHT22;14507;52.418;13.398;2023-07-30T12:23:59;27.40;83.20
26952;DHT22;14507;52.418;13.398;2023-07-30T12:26:25;27.50;81.70
26952;DHT22;14507;52.418;13.398;2023-07-30T12:28:50;27.40;79.70
26952;DHT22;14507;52.418;13.398;2023-07-30T12:31:16;27.30;79.10
26952;DHT22;14507;52.418;13.398;2023-07-30T12:33:42;27.40;80.10
26952;DHT22;14507;52.418;13.398;2023-07-30T12:36:08;27.40;78.80
26952;DHT22;14507;52.418;13.398;2023-07-30T12:38:34;27.50;78.70
26952;DHT22;14507;52.418;13.398;2023-07-30T12:41:00;27.60;80.30
26952;DHT22;14507;52.418;13.398;2023-07-30T12:43:25;27.60;79.10
26952;DHT22;14507;52.418;13.398;2023-07-30T12:45:51;27.60;78.90
26952;DHT22;14507;52.418;13.398;2023-07-30T12:48:17;27.60;79.00
26952;DHT22;14507;52.418;13.398;2023-07-30T12:50:42;27.60;81.30
26952;DHT22;14507;52.418;13.398;2023-07-30T12:53:08;27.60;80.00
26952;DHT22;14507;52.418;13.398;2023-07-30T12:55:33;27.50;80.50
26952;DHT22;14507;52.418;13.398;2023-07-30T12:57:59;27.50;80.60
26952;DHT22;14507;52.418;13.398;2023-07-30T13:00:25;27.50;81.20
26952;DHT22;14507;52.418;13.398;2023-07-30T13:02:50;27.40;79.10
26952;DHT22;14507;52.418;13.398;2023-07-30T13:05:20;27.40;78.80
26952;DHT22;14507;52.418;13.398;2023-07-30T13:07:46;27.30;78.00
26952;DHT22;14507;52.418;13.398;2023-07-30T13:10:12;27.30;79.80
26952;DHT22;14507;52.418;13.398;2023-07-30T13:12:38;27.30;79.80
26952;DHT22;14507;52.418;13.398;2023-07-30T13:15:04;27.20;76.60
26952;DHT22;14507;52.418;13.398;2023-07-30T13:17:30;27.20;80.90
26952;DHT22;14507;52.418;13.398;2023-07-30T13:19:57;27.20;78.70
26952;DHT22;14507;52.418;13.398;2023-07-30T13:22:23;27.20;79.00
26952;DHT22;14507;52.418;13.398;2023-07-30T13:24:49;27.20;80.60
26952;DHT22;14507;52.418;13.398;2023-07-30T13:27:14;27.20;79.00
26952;DHT22;14507;52.418;13.398;2023-07-30T13:29:40;27.20;76.20
26952;DHT22;14507;52.418;13.398;2023-07-30T13:32:06;27.20;80.10
26952;DHT22;14507;52.418;13.398;2023-07-30T13:34:32;27.10;79.70
26952;DHT22;14507;52.418;13.398;2023-07-30T13:36:57;27.10;78.20
26952;DHT22;14507;52.418;13.398;2023-07-30T13:39:23;27.10;77.10
26952;DHT22;14507;52.418;13.398;2023-07-30T13:41:49;27.10;78.20
26952;DHT22;14507;52.418;13.398;2023-07-30T13:44:14;27.10;77.90
26952;DHT22;14507;52.418;13.398;2023-07-30T13:46:40;26.90;78.10
26952;DHT22;14507;52.418;13.398;2023-07-30T13:49:06;26.80;77.70
26952;DHT22;14507;52.418;13.398;2023-07-30T13:51:32;26.70;81.90
26952;DHT22;14507;52.418;13.398;2023-07-30T13:53:59;26.60;77.30
26952;DHT22;14507;52.418;13.398;2023-07-30T13:56:26;26.60;78.90
26952;DHT22;14507;52.418;13.398;2023-07-30T13:58:52;26.60;78.20
26952;DHT22;14507;52.418;13.398;2023-07-30T14:01:17;26.40;77.80
26952;DHT22;14507;52.418;13.398;2023-07-30T14:03:43;26.30;79.00
26952;DHT22;14507;52.418;13.398;2023-07-30T14:06:09;26.30;77.20
26952;DHT22;14507;52.418;13.398;2023-07-30T14:08:35;26.30;79.20
26952;DHT22;14507;52.418;13.398;2023-07-30T14:11:00;26.20;80.10
26952;DHT22;14507;52.418;13.398;2023-07-30T14:13:26;26.10;78.80
26952;DHT22;14507;52.418;13.398;2023-07-30T14:15:52;26.00;77.00
26952;DHT22;14507;52.418;13.398;2023-07-30T14:18:18;25.80;76.30
26952;DHT22;14507;52.418;13.398;2023-07-30T14:20:43;25.60;76.20
26952;DHT22;14507;52.418;13.398;2023-07-30T14:23:09;25.50;77.80
26952;DHT22;14507;52.418;13.398;2023-07-30T14:25:37;25.40;77.80
26952;DHT22;14507;52.418;13.398;2023-07-30T14:28:02;25.40;77.00
26952;DHT22;14507;52.418;13.398;2023-07-30T14:30:28;25.30;77.00
26952;DHT22;14507;52.418;13.398;2023-07-30T14:32:54;25.10;77.80
26952;DHT22;14507;52.418;13.398;2023-07-30T14:35:20;25.00;79.40
26952;DHT22;14507;52.418;13.398;2023-07-30T14:37:45;24.90;80.40
26952;DHT22;14507;52.418;13.398;2023-07-30T14:40:11;24.80;80.90
26952;DHT22;14507;52.418;13.398;2023-07-30T14:42:37;24.80;80.20
26952;DHT22;14507;52.418;13.398;2023-07-30T14:45:03;24.70;87.70
26952;DHT22;14507;52.418;13.398;2023-07-30T14:47:28;24.50;91.30
26952;DHT22;14507;52.418;13.398;2023-07-30T14:49:54;24.40;92.70
26952;DHT22;14507;52.418;13.398;2023-07-30T14:52:22;24.10;93.00
26952;DHT22;14507;52.418;13.398;2023-07-30T14:54:48;23.80;94.50
26952;DHT22;14507;52.418;13.398;2023-07-30T14:57:14;23.60;94.80
26952;DHT22;14507;52.418;13.398;2023-07-30T14:59:39;23.30;97.30
26952;DHT22;14507;52.418;13.398;2023-07-30T15:02:06;23.10;98.30
26952;DHT22;14507;52.418;13.398;2023-07-30T15:04:31;22.90;99.40
26952;DHT22;14507;52.418;13.398;2023-07-30T15:06:57;22.70;99.90
26952;DHT22;14507;52.418;13.398;2023-07-30T15:09:22;22.60;99.90
26952;DHT22;14507;52.418;13.398;2023-07-30T15:11:49;22.60;99.90